sensor_id;sensor_type;location;lat;lon;timestamp;P1;durP1;ratioP1;P2;durP2;ratioP2
16029;SDS011;34770;49.272;11.070;2022-09-01T00:01:00;4.75;;;4.10;;
16029;SDS011;34770;49.272;11.070;2022-09-01T00:03:27;5.30;;;4.25;;
16029;SDS011;34770;49.272;11.070;2022-09-01T00:05:53;4.60;;;3.78;;
16029;SDS011;34770;49.272;11.070;2022-09-01T00:08:21;4.35;;;3.95;;
16029;SDS011;34770;49.272;11.070;2022-09-01T00:10:47;3.95;;;3.60;;
16029;SDS011;34770;49.272;11.070;2022-09-01T00:13:13;4.75;;;4.25;;
16029;SDS011;34770;49.272;11.070;2022-09-01T00:15:39;5.40;;;3.90;;
16029;SDS011;34770;49.272;11.070;2022-09-01T00:18:05;3.92;;;3.63;;
16029;SDS011;34770;49.272;11.070;2022-09-01T00:20:30;4.25;;;3.90;;
16029;SDS011;34770;49.272;11.070;2022-09-01T00:22:56;5.10;;;4.70;;
16029;SDS011;34770;49.272;11.070;2022-09-01T00:25:22;4.47;;;4.07;;
16029;SDS011;34770;49.272;11.070;2022-09-01T00:27:48;4.38;;;3.97;;
16029;SDS011;34770;49.272;11.070;2022-09-01T00:30:15;5.65;;;4.10;;
16029;SDS011;34770;49.272;11.070;2022-09-01T00:32:42;4.60;;;4.13;;
16029;SDS011;34770;49.272;11.070;2022-09-01T00:35:11;4.55;;;4.15;;
16029;SDS011;34770;49.272;11.070;2022-09-01T00:37:40;4.82;;;4.25;;
16029;SDS011;34770;49.272;11.070;2022-09-01T00:40:06;5.50;;;4.05;;
16029;SDS011;34770;49.272;11.070;2022-09-01T00:42:32;4.32;;;3.92;;
16029;SDS011;34770;49.272;11.070;2022-09-01T00:44:57;3.92;;;3.63;;
16029;SDS011;34770;49.272;11.070;2022-09-01T00:47:22;6.25;;;4.00;;
16029;SDS011;34770;49.272;11.070;2022-09-01T00:49:48;4.75;;;3.92;;
16029;SDS011;34770;49.272;11.070;2022-09-01T00:52:16;4.88;;;4.47;;
16029;SDS011;34770;49.272;11.070;2022-09-01T00:54:48;4.90;;;4.18;;
16029;SDS011;34770;49.272;11.070;2022-09-01T00:57:17;5.95;;;4.00;;
16029;SDS011;34770;49.272;11.070;2022-09-01T00:59:48;4.65;;;4.25;;
16029;SDS011;34770;49.272;11.070;2022-09-01T01:02:17;4.88;;;4.38;;
16029;SDS011;34770;49.272;11.070;2022-09-01T01:04:42;4.65;;;4.15;;
16029;SDS011;34770;49.272;11.070;2022-09-01T01:07:08;4.63;;;4.22;;
16029;SDS011;34770;49.272;11.070;2022-09-01T01:09:35;4.80;;;4.32;;
16029;SDS011;34770;49.272;11.070;2022-09-01T01:12:05;4.97;;;4.47;;
16029;SDS011;34770;49.272;11.070;2022-09-01T01:14:33;5.63;;;4.22;;
16029;SDS011;34770;49.272;11.070;2022-09-01T01:17:00;4.28;;;3.88;;
16029;SDS011;34770;49.272;11.070;2022-09-01T01:19:32;3.88;;;3.58;;
16029;SDS011;34770;49.272;11.070;2022-09-01T01:22:47;4.07;;;3.70;;
16029;SDS011;34770;49.272;11.070;2022-09-01T01:30:37;4.70;;;4.20;;
16029;SDS011;34770;49.272;11.070;2022-09-01T01:33:04;4.45;;;4.05;;
16029;SDS011;34770;49.272;11.070;2022-09-01T01:35:30;5.75;;;4.13;;
16029;SDS011;34770;49.272;11.070;2022-09-01T01:37:57;4.85;;;4.18;;
16029;SDS011;34770;49.272;11.070;2022-09-01T01:40:24;5.82;;;3.80;;
16029;SDS011;34770;49.272;11.070;2022-09-01T01:42:52;5.55;;;4.13;;
16029;SDS011;34770;49.272;11.070;2022-09-01T01:45:20;5.15;;;4.65;;
16029;SDS011;34770;49.272;11.070;2022-09-01T01:47:47;4.63;;;4.22;;
16029;SDS011;34770;49.272;11.070;2022-09-01T01:50:24;4.40;;;4.00;;
16029;SDS011;34770;49.272;11.070;2022-09-01T01:52:57;4.78;;;4.28;;
16029;SDS011;34770;49.272;11.070;2022-09-01T01:55:25;4.40;;;4.00;;
16029;SDS011;34770;49.272;11.070;2022-09-01T01:57:52;4.70;;;4.07;;
16029;SDS011;34770;49.272;11.070;2022-09-01T02:00:20;5.53;;;4.05;;
16029;SDS011;34770;49.272;11.070;2022-09-01T02:02:49;4.80;;;4.15;;
16029;SDS011;34770;49.272;11.070;2022-09-01T02:05:22;5.35;;;4.85;;
16029;SDS011;34770;49.272;11.070;2022-09-01T02:08:00;4.80;;;4.30;;
16029;SDS011;34770;49.272;11.070;2022-09-01T02:10:30;4.93;;;4.50;;
16029;SDS011;34770;49.272;11.070;2022-09-01T02:12:58;3.97;;;3.67;;
16029;SDS011;34770;49.272;11.070;2022-09-01T02:15:32;4.93;;;4.30;;
16029;SDS011;34770;49.272;11.070;2022-09-01T02:18:06;4.88;;;4.38;;
16029;SDS011;34770;49.272;11.070;2022-09-01T02:20:32;5.10;;;4.60;;
16029;SDS011;34770;49.272;11.070;2022-09-01T02:22:57;4.95;;;4.15;;
16029;SDS011;34770;49.272;11.070;2022-09-01T02:25:31;4.85;;;4.35;;
16029;SDS011;34770;49.272;11.070;2022-09-01T02:27:57;5.63;;;4.57;;
16029;SDS011;34770;49.272;11.070;2022-09-01T02:30:26;5.85;;;5.22;;
16029;SDS011;34770;49.272;11.070;2022-09-01T02:32:52;5.07;;;4.57;;
16029;SDS011;34770;49.272;11.070;2022-09-01T02:35:18;5.65;;;5.03;;
16029;SDS011;34770;49.272;11.070;2022-09-01T02:37:43;4.88;;;4.47;;
16029;SDS011;34770;49.272;11.070;2022-09-01T02:40:13;5.13;;;4.65;;
16029;SDS011;34770;49.272;11.070;2022-09-01T02:42:39;5.10;;;4.70;;
16029;SDS011;34770;49.272;11.070;2022-09-01T02:45:06;7.18;;;5.18;;
16029;SDS011;34770;49.272;11.070;2022-09-01T02:47:35;5.72;;;5.05;;
16029;SDS011;34770;49.272;11.070;2022-09-01T02:50:02;5.85;;;4.90;;
16029;SDS011;34770;49.272;11.070;2022-09-01T02:52:28;4.78;;;4.38;;
16029;SDS011;34770;49.272;11.070;2022-09-01T02:54:59;5.15;;;4.63;;
16029;SDS011;34770;49.272;11.070;2022-09-01T02:57:24;6.43;;;4.50;;
16029;SDS011;34770;49.272;11.070;2022-09-01T02:59:53;8.43;;;5.20;;
16029;SDS011;34770;49.272;11.070;2022-09-01T03:02:22;6.80;;;5.18;;
16029;SDS011;34770;49.272;11.070;2022-09-01T03:04:50;5.55;;;4.47;;
16029;SDS011;34770;49.272;11.070;2022-09-01T03:07:19;6.45;;;5.82;;
16029;SDS011;34770;49.272;11.070;2022-09-01T03:09:50;4.93;;;4.43;;
16029;SDS011;34770;49.272;11.070;2022-09-01T03:12:16;5.45;;;5.03;;
16029;SDS011;34770;49.272;11.070;2022-09-01T03:14:43;5.82;;;5.22;;
16029;SDS011;34770;49.272;11.070;2022-09-01T03:17:09;7.40;;;5.15;;
16029;SDS011;34770;49.272;11.070;2022-09-01T03:19:35;6.10;;;4.50;;
16029;SDS011;34770;49.272;11.070;2022-09-01T03:22:08;6.60;;;5.22;;
16029;SDS011;34770;49.272;11.070;2022-09-01T03:24:34;5.88;;;5.30;;
16029;SDS011;34770;49.272;11.070;2022-09-01T03:27:00;5.13;;;4.72;;
16029;SDS011;34770;49.272;11.070;2022-09-01T03:29:25;5.80;;;5.03;;
16029;SDS011;34770;49.272;11.070;2022-09-01T03:31:51;5.70;;;5.10;;
16029;SDS011;34770;49.272;11.070;2022-09-01T03:34:16;4.72;;;4.30;;
16029;SDS011;34770;49.272;11.070;2022-09-01T03:36:44;5.45;;;4.95;;
16029;SDS011;34770;49.272;11.070;2022-09-01T03:39:14;5.68;;;5.13;;
16029;SDS011;34770;49.272;11.070;2022-09-01T03:41:42;5.07;;;4.60;;
16029;SDS011;34770;49.272;11.070;2022-09-01T03:44:08;5.22;;;4.63;;
16029;SDS011;34770;49.272;11.070;2022-09-01T03:46:36;5.57;;;5.07;;
16029;SDS011;34770;49.272;11.070;2022-09-01T03:49:04;5.30;;;4.82;;
16029;SDS011;34770;49.272;11.070;2022-09-01T03:51:37;7.05;;;5.28;;
16029;SDS011;34770;49.272;11.070;2022-09-01T03:54:03;5.25;;;4.82;;
16029;SDS011;34770;49.272;11.070;2022-09-01T03:56:28;5.00;;;4.60;;
16029;SDS011;34770;49.272;11.070;2022-09-01T03:58:55;5.63;;;5.13;;
16029;SDS011;34770;49.272;11.070;2022-09-01T04:01:21;7.25;;;4.65;;
16029;SDS011;34770;49.272;11.070;2022-09-01T04:03:47;5.00;;;4.50;;
16029;SDS011;34770;49.272;11.070;2022-09-01T04:06:13;5.85;;;5.25;;
16029;SDS011;34770;49.272;11.070;2022-09-01T04:08:39;5.22;;;4.72;;
16029;SDS011;34770;49.272;11.070;2022-09-01T04:11:11;5.97;;;5.38;;
16029;SDS011;34770;49.272;11.070;2022-09-01T04:13:42;6.65;;;5.50;;
16029;SDS011;34770;49.272;11.070;2022-09-01T04:16:30;6.15;;;5.55;;
16029;SDS011;34770;49.272;11.070;2022-09-01T04:19:14;5.75;;;5.20;;
16029;SDS011;34770;49.272;11.070;2022-09-01T04:21:47;6.78;;;5.90;;
16029;SDS011;34770;49.272;11.070;2022-09-01T04:24:14;6.90;;;6.15;;
16029;SDS011;34770;49.272;11.070;2022-09-01T04:26:41;6.05;;;5.35;;
16029;SDS011;34770;49.272;11.070;2022-09-01T04:29:06;5.38;;;4.90;;
16029;SDS011;34770;49.272;11.070;2022-09-01T04:31:33;5.60;;;4.57;;
16029;SDS011;34770;49.272;11.070;2022-09-01T04:34:01;5.57;;;4.80;;
16029;SDS011;34770;49.272;11.070;2022-09-01T04:36:27;5.53;;;5.03;;
16029;SDS011;34770;49.272;11.070;2022-09-01T04:38:59;5.85;;;5.35;;
16029;SDS011;34770;49.272;11.070;2022-09-01T04:41:30;6.07;;;5.45;;
16029;SDS011;34770;49.272;11.070;2022-09-01T04:43:57;5.90;;;5.32;;
16029;SDS011;34770;49.272;11.070;2022-09-01T04:46:27;6.32;;;5.60;;
16029;SDS011;34770;49.272;11.070;2022-09-01T04:48:55;6.68;;;5.45;;
16029;SDS011;34770;49.272;11.070;2022-09-01T04:51:21;6.32;;;5.75;;
16029;SDS011;34770;49.272;11.070;2022-09-01T04:53:48;6.25;;;5.15;;
16029;SDS011;34770;49.272;11.070;2022-09-01T04:56:15;6.47;;;4.95;;
16029;SDS011;34770;49.272;11.070;2022-09-01T04:58:47;5.75;;;5.18;;
16029;SDS011;34770;49.272;11.070;2022-09-01T05:01:21;7.30;;;6.22;;
16029;SDS011;34770;49.272;11.070;2022-09-01T05:03:49;6.15;;;5.65;;
16029;SDS011;34770;49.272;11.070;2022-09-01T05:06:20;6.03;;;5.43;;
16029;SDS011;34770;49.272;11.070;2022-09-01T05:08:46;6.65;;;5.22;;
16029;SDS011;34770;49.272;11.070;2022-09-01T05:11:12;6.88;;;5.72;;
16029;SDS011;34770;49.272;11.070;2022-09-01T05:13:42;6.13;;;5.53;;
16029;SDS011;34770;49.272;11.070;2022-09-01T05:16:09;7.07;;;6.00;;
16029;SDS011;34770;49.272;11.070;2022-09-01T05:18:39;6.70;;;6.00;;
16029;SDS011;34770;49.272;11.070;2022-09-01T05:21:09;5.97;;;5.40;;
16029;SDS011;34770;49.272;11.070;2022-09-01T05:23:37;7.40;;;5.50;;
16029;SDS011;34770;49.272;11.070;2022-09-01T05:26:05;6.03;;;5.43;;
16029;SDS011;34770;49.272;11.070;2022-09-01T05:28:40;6.38;;;5.25;;
16029;SDS011;34770;49.272;11.070;2022-09-01T05:31:07;6.10;;;5.50;;
16029;SDS011;34770;49.272;11.070;2022-09-01T05:33:34;5.70;;;5.20;;
16029;SDS011;34770;49.272;11.070;2022-09-01T05:36:01;5.45;;;4.95;;
16029;SDS011;34770;49.272;11.070;2022-09-01T05:38:32;6.43;;;4.70;;
16029;SDS011;34770;49.272;11.070;2022-09-01T05:41:02;6.22;;;5.30;;
16029;SDS011;34770;49.272;11.070;2022-09-01T05:43:32;5.65;;;5.15;;
16029;SDS011;34770;49.272;11.070;2022-09-01T05:45:58;5.50;;;5.00;;
16029;SDS011;34770;49.272;11.070;2022-09-01T05:48:25;5.43;;;4.95;;
16029;SDS011;34770;49.272;11.070;2022-09-01T05:50:52;8.02;;;5.15;;
16029;SDS011;34770;49.272;11.070;2022-09-01T05:53:22;5.97;;;4.60;;
16029;SDS011;34770;49.272;11.070;2022-09-01T05:55:49;5.63;;;5.13;;
16029;SDS011;34770;49.272;11.070;2022-09-01T05:58:21;5.70;;;5.20;;
16029;SDS011;34770;49.272;11.070;2022-09-01T06:00:49;5.72;;;5.10;;
16029;SDS011;34770;49.272;11.070;2022-09-01T06:03:16;5.07;;;4.55;;
16029;SDS011;34770;49.272;11.070;2022-09-01T06:05:41;5.78;;;5.20;;
16029;SDS011;34770;49.272;11.070;2022-09-01T06:08:12;5.45;;;4.95;;
16029;SDS011;34770;49.272;11.070;2022-09-01T06:10:39;6.55;;;5.85;;
16029;SDS011;34770;49.272;11.070;2022-09-01T06:13:06;5.80;;;5.20;;
16029;SDS011;34770;49.272;11.070;2022-09-01T06:15:32;5.60;;;5.00;;
16029;SDS011;34770;49.272;11.070;2022-09-01T06:18:00;5.65;;;5.22;;
16029;SDS011;34770;49.272;11.070;2022-09-01T06:20:25;8.13;;;5.47;;
16029;SDS011;34770;49.272;11.070;2022-09-01T06:22:51;11.27;;;5.57;;
16029;SDS011;34770;49.272;11.070;2022-09-01T06:25:18;6.57;;;5.28;;
16029;SDS011;34770;49.272;11.070;2022-09-01T06:27:44;6.43;;;5.82;;
16029;SDS011;34770;49.272;11.070;2022-09-01T06:30:12;5.78;;;5.22;;
16029;SDS011;34770;49.272;11.070;2022-09-01T06:32:44;7.00;;;5.65;;
16029;SDS011;34770;49.272;11.070;2022-09-01T06:35:10;6.15;;;5.53;;
16029;SDS011;34770;49.272;11.070;2022-09-01T06:37:37;6.65;;;5.28;;
16029;SDS011;34770;49.272;11.070;2022-09-01T06:40:04;5.78;;;5.30;;
16029;SDS011;34770;49.272;11.070;2022-09-01T06:42:30;7.03;;;5.55;;
16029;SDS011;34770;49.272;11.070;2022-09-01T06:44:59;5.95;;;5.45;;
16029;SDS011;34770;49.272;11.070;2022-09-01T06:47:25;6.55;;;5.35;;
16029;SDS011;34770;49.272;11.070;2022-09-01T06:49:52;7.65;;;5.47;;
16029;SDS011;34770;49.272;11.070;2022-09-01T06:52:22;6.13;;;5.53;;
16029;SDS011;34770;49.272;11.070;2022-09-01T06:54:48;5.15;;;4.75;;
16029;SDS011;34770;49.272;11.070;2022-09-01T06:57:16;5.78;;;5.28;;
16029;SDS011;34770;49.272;11.070;2022-09-01T06:59:41;5.65;;;5.15;;
16029;SDS011;34770;49.272;11.070;2022-09-01T07:02:06;6.35;;;4.95;;
16029;SDS011;34770;49.272;11.070;2022-09-01T07:04:33;7.80;;;5.38;;
16029;SDS011;34770;49.272;11.070;2022-09-01T07:06:58;5.28;;;4.78;;
16029;SDS011;34770;49.272;11.070;2022-09-01T07:09:24;5.40;;;4.90;;
16029;SDS011;34770;49.272;11.070;2022-09-01T07:11:50;5.45;;;4.95;;
16029;SDS011;34770;49.272;11.070;2022-09-01T07:14:17;6.97;;;4.90;;
16029;SDS011;34770;49.272;11.070;2022-09-01T07:16:43;4.70;;;4.28;;
16029;SDS011;34770;49.272;11.070;2022-09-01T07:19:10;5.82;;;4.85;;
16029;SDS011;34770;49.272;11.070;2022-09-01T07:21:40;4.97;;;4.50;;
16029;SDS011;34770;49.272;11.070;2022-09-01T07:24:07;6.18;;;5.07;;
16029;SDS011;34770;49.272;11.070;2022-09-01T07:26:37;6.88;;;4.68;;
16029;SDS011;34770;49.272;11.070;2022-09-01T07:29:05;10.10;;;5.05;;
16029;SDS011;34770;49.272;11.070;2022-09-01T07:31:33;5.32;;;4.80;;
16029;SDS011;34770;49.272;11.070;2022-09-01T07:34:05;5.78;;;5.13;;
16029;SDS011;34770;49.272;11.070;2022-09-01T07:36:34;6.35;;;4.82;;
16029;SDS011;34770;49.272;11.070;2022-09-01T07:39:02;6.10;;;4.60;;
16029;SDS011;34770;49.272;11.070;2022-09-01T07:41:28;6.93;;;4.70;;
16029;SDS011;34770;49.272;11.070;2022-09-01T07:43:54;4.95;;;4.43;;
16029;SDS011;34770;49.272;11.070;2022-09-01T07:46:23;5.55;;;5.05;;
16029;SDS011;34770;49.272;11.070;2022-09-01T07:48:51;6.13;;;4.80;;
16029;SDS011;34770;49.272;11.070;2022-09-01T07:51:18;5.22;;;4.28;;
16029;SDS011;34770;49.272;11.070;2022-09-01T07:53:46;5.57;;;4.47;;
16029;SDS011;34770;49.272;11.070;2022-09-01T07:56:16;4.50;;;4.10;;
16029;SDS011;34770;49.272;11.070;2022-09-01T07:58:46;4.65;;;4.10;;
16029;SDS011;34770;49.272;11.070;2022-09-01T08:01:20;4.40;;;4.00;;
16029;SDS011;34770;49.272;11.070;2022-09-01T08:03:49;4.65;;;4.15;;
16029;SDS011;34770;49.272;11.070;2022-09-01T08:06:21;4.85;;;3.65;;
16029;SDS011;34770;49.272;11.070;2022-09-01T08:08:50;5.05;;;3.80;;
16029;SDS011;34770;49.272;11.070;2022-09-01T08:11:17;4.18;;;3.78;;
16029;SDS011;34770;49.272;11.070;2022-09-01T08:13:44;4.00;;;3.67;;
16029;SDS011;34770;49.272;11.070;2022-09-01T08:16:11;3.72;;;3.40;;
16029;SDS011;34770;49.272;11.070;2022-09-01T08:18:38;3.92;;;3.53;;
16029;SDS011;34770;49.272;11.070;2022-09-01T08:21:05;5.15;;;3.75;;
16029;SDS011;34770;49.272;11.070;2022-09-01T08:23:31;4.22;;;3.83;;
16029;SDS011;34770;49.272;11.070;2022-09-01T08:25:56;4.95;;;3.50;;
16029;SDS011;34770;49.272;11.070;2022-09-01T08:28:22;4.85;;;3.58;;
16029;SDS011;34770;49.272;11.070;2022-09-01T08:30:47;6.90;;;3.80;;
16029;SDS011;34770;49.272;11.070;2022-09-01T08:33:13;3.92;;;3.55;;
16029;SDS011;34770;49.272;11.070;2022-09-01T08:35:39;5.18;;;3.45;;
16029;SDS011;34770;49.272;11.070;2022-09-01T08:38:06;4.30;;;3.38;;
16029;SDS011;34770;49.272;11.070;2022-09-01T08:40:32;3.97;;;3.60;;
16029;SDS011;34770;49.272;11.070;2022-09-01T08:45:48;4.40;;;4.00;;
16029;SDS011;34770;49.272;11.070;2022-09-01T08:48:21;4.90;;;4.45;;
16029;SDS011;34770;49.272;11.070;2022-09-01T08:51:29;4.88;;;3.55;;
16029;SDS011;34770;49.272;11.070;2022-09-01T08:54:03;5.75;;;4.10;;
16029;SDS011;34770;49.272;11.070;2022-09-01T08:56:41;4.85;;;4.03;;
16029;SDS011;34770;49.272;11.070;2022-09-01T08:59:08;4.30;;;3.90;;
16029;SDS011;34770;49.272;11.070;2022-09-01T09:06:31;4.68;;;3.88;;
16029;SDS011;34770;49.272;11.070;2022-09-01T09:09:11;6.90;;;4.00;;
16029;SDS011;34770;49.272;11.070;2022-09-01T09:11:45;4.75;;;3.67;;
16029;SDS011;34770;49.272;11.070;2022-09-01T09:14:58;4.30;;;3.80;;
16029;SDS011;34770;49.272;11.070;2022-09-01T09:17:29;4.53;;;4.13;;
16029;SDS011;34770;49.272;11.070;2022-09-01T09:20:01;3.90;;;3.60;;
16029;SDS011;34770;49.272;11.070;2022-09-01T09:22:28;4.60;;;4.05;;
16029;SDS011;34770;49.272;11.070;2022-09-01T09:25:12;7.40;;;3.50;;
16029;SDS011;34770;49.272;11.070;2022-09-01T09:27:41;4.88;;;4.40;;
16029;SDS011;34770;49.272;11.070;2022-09-01T09:30:10;4.18;;;3.78;;
16029;SDS011;34770;49.272;11.070;2022-09-01T09:38:14;8.05;;;3.90;;
16029;SDS011;34770;49.272;11.070;2022-09-01T09:41:02;4.75;;;4.05;;
16029;SDS011;34770;49.272;11.070;2022-09-01T09:43:29;4.13;;;3.83;;
16029;SDS011;34770;49.272;11.070;2022-09-01T09:46:19;3.97;;;3.58;;
16029;SDS011;34770;49.272;11.070;2022-09-01T09:49:08;4.18;;;3.10;;
16029;SDS011;34770;49.272;11.070;2022-09-01T09:51:41;4.47;;;3.90;;
16029;SDS011;34770;49.272;11.070;2022-09-01T09:54:16;4.72;;;4.07;;
16029;SDS011;34770;49.272;11.070;2022-09-01T09:59:31;4.35;;;3.80;;
16029;SDS011;34770;49.272;11.070;2022-09-01T10:02:13;5.10;;;3.50;;
16029;SDS011;34770;49.272;11.070;2022-09-01T10:04:55;4.15;;;3.75;;
16029;SDS011;34770;49.272;11.070;2022-09-01T10:07:25;3.50;;;3.20;;
16029;SDS011;34770;49.272;11.070;2022-09-01T10:09:52;4.10;;;3.70;;
16029;SDS011;34770;49.272;11.070;2022-09-01T10:12:19;3.90;;;3.13;;
16029;SDS011;34770;49.272;11.070;2022-09-01T10:14:49;5.10;;;3.95;;
16029;SDS011;34770;49.272;11.070;2022-09-01T10:17:20;3.65;;;3.35;;
16029;SDS011;34770;49.272;11.070;2022-09-01T10:19:54;5.18;;;2.90;;
16029;SDS011;34770;49.272;11.070;2022-09-01T10:22:22;3.85;;;3.55;;
16029;SDS011;34770;49.272;11.070;2022-09-01T10:24:49;3.78;;;3.47;;
16029;SDS011;34770;49.272;11.070;2022-09-01T10:27:24;5.22;;;3.83;;
16029;SDS011;34770;49.272;11.070;2022-09-01T10:30:09;3.55;;;3.25;;
16029;SDS011;34770;49.272;11.070;2022-09-01T10:32:44;5.32;;;4.00;;
16029;SDS011;34770;49.272;11.070;2022-09-01T10:35:13;3.58;;;3.28;;
16029;SDS011;34770;49.272;11.070;2022-09-01T10:37:44;3.95;;;3.65;;
16029;SDS011;34770;49.272;11.070;2022-09-01T10:42:40;3.55;;;3.25;;
16029;SDS011;34770;49.272;11.070;2022-09-01T10:53:37;3.78;;;3.30;;
16029;SDS011;34770;49.272;11.070;2022-09-01T10:56:24;5.28;;;3.35;;
16029;SDS011;34770;49.272;11.070;2022-09-01T10:59:05;3.78;;;2.88;;
16029;SDS011;34770;49.272;11.070;2022-09-01T11:14:54;4.38;;;3.50;;
16029;SDS011;34770;49.272;11.070;2022-09-01T11:20:22;3.20;;;2.90;;
16029;SDS011;34770;49.272;11.070;2022-09-01T11:36:01;4.72;;;3.75;;
16029;SDS011;34770;49.272;11.070;2022-09-01T11:38:33;5.95;;;3.50;;
16029;SDS011;34770;49.272;11.070;2022-09-01T11:41:18;3.55;;;3.15;;
16029;SDS011;34770;49.272;11.070;2022-09-01T11:43:58;3.42;;;3.13;;
16029;SDS011;34770;49.272;11.070;2022-09-01T11:46:26;3.53;;;3.22;;
16029;SDS011;34770;49.272;11.070;2022-09-01T11:48:54;2.92;;;2.72;;
16029;SDS011;34770;49.272;11.070;2022-09-01T11:51:21;3.28;;;3.00;;
16029;SDS011;34770;49.272;11.070;2022-09-01T11:53:47;5.47;;;3.03;;
16029;SDS011;34770;49.272;11.070;2022-09-01T11:58:42;2.80;;;2.60;;
16029;SDS011;34770;49.272;11.070;2022-09-01T12:03:45;4.07;;;2.90;;
16029;SDS011;34770;49.272;11.070;2022-09-01T12:06:18;3.03;;;2.72;;
16029;SDS011;34770;49.272;11.070;2022-09-01T12:09:06;3.95;;;2.70;;
16029;SDS011;34770;49.272;11.070;2022-09-01T12:11:33;3.17;;;2.83;;
16029;SDS011;34770;49.272;11.070;2022-09-01T12:14:07;4.97;;;2.42;;
16029;SDS011;34770;49.272;11.070;2022-09-01T12:16:34;2.90;;;2.70;;
16029;SDS011;34770;49.272;11.070;2022-09-01T12:19:02;2.90;;;2.70;;
16029;SDS011;34770;49.272;11.070;2022-09-01T12:24:15;3.15;;;2.60;;
16029;SDS011;34770;49.272;11.070;2022-09-01T12:26:41;3.58;;;2.47;;
16029;SDS011;34770;49.272;11.070;2022-09-01T12:29:09;3.15;;;2.85;;
16029;SDS011;34770;49.272;11.070;2022-09-01T12:31:39;3.60;;;2.47;;
16029;SDS011;34770;49.272;11.070;2022-09-01T12:34:22;2.83;;;2.53;;
16029;SDS011;34770;49.272;11.070;2022-09-01T12:37:09;2.83;;;2.63;;
16029;SDS011;34770;49.272;11.070;2022-09-01T12:39:39;2.85;;;2.45;;
16029;SDS011;34770;49.272;11.070;2022-09-01T12:44:46;2.78;;;2.55;;
16029;SDS011;34770;49.272;11.070;2022-09-01T12:47:13;2.88;;;2.42;;
16029;SDS011;34770;49.272;11.070;2022-09-01T12:49:57;3.40;;;2.67;;
16029;SDS011;34770;49.272;11.070;2022-09-01T12:52:47;3.83;;;2.28;;
16029;SDS011;34770;49.272;11.070;2022-09-01T12:57:49;2.40;;;2.20;;
16029;SDS011;34770;49.272;11.070;2022-09-01T13:00:18;4.40;;;2.83;;
16029;SDS011;34770;49.272;11.070;2022-09-01T13:07:52;2.78;;;2.50;;
16029;SDS011;34770;49.272;11.070;2022-09-01T13:10:23;3.00;;;2.50;;
16029;SDS011;34770;49.272;11.070;2022-09-01T13:12:52;3.85;;;2.67;;
16029;SDS011;34770;49.272;11.070;2022-09-01T13:15:19;4.85;;;2.83;;
16029;SDS011;34770;49.272;11.070;2022-09-01T13:17:45;3.05;;;2.70;;
16029;SDS011;34770;49.272;11.070;2022-09-01T13:20:11;3.63;;;2.67;;
16029;SDS011;34770;49.272;11.070;2022-09-01T13:22:37;3.33;;;2.92;;
16029;SDS011;34770;49.272;11.070;2022-09-01T13:25:05;4.90;;;2.40;;
16029;SDS011;34770;49.272;11.070;2022-09-01T13:27:31;2.63;;;2.38;;
16029;SDS011;34770;49.272;11.070;2022-09-01T13:29:56;3.15;;;2.60;;
16029;SDS011;34770;49.272;11.070;2022-09-01T13:32:22;2.78;;;2.58;;
16029;SDS011;34770;49.272;11.070;2022-09-01T13:34:48;2.60;;;2.40;;
16029;SDS011;34770;49.272;11.070;2022-09-01T13:37:15;2.65;;;2.45;;
16029;SDS011;34770;49.272;11.070;2022-09-01T13:39:40;2.70;;;2.50;;
16029;SDS011;34770;49.272;11.070;2022-09-01T13:42:06;2.38;;;2.20;;
16029;SDS011;34770;49.272;11.070;2022-09-01T13:44:31;2.33;;;2.13;;
16029;SDS011;34770;49.272;11.070;2022-09-01T13:46:57;3.22;;;1.98;;
16029;SDS011;34770;49.272;11.070;2022-09-01T13:49:23;2.00;;;1.90;;
16029;SDS011;34770;49.272;11.070;2022-09-01T13:51:52;2.08;;;1.90;;
16029;SDS011;34770;49.272;11.070;2022-09-01T13:54:18;3.30;;;2.38;;
16029;SDS011;34770;49.272;11.070;2022-09-01T13:56:44;2.10;;;1.73;;
16029;SDS011;34770;49.272;11.070;2022-09-01T13:59:10;2.40;;;2.13;;
16029;SDS011;34770;49.272;11.070;2022-09-01T14:01:35;2.53;;;2.20;;
16029;SDS011;34770;49.272;11.070;2022-09-01T14:04:01;2.40;;;2.20;;
16029;SDS011;34770;49.272;11.070;2022-09-01T14:06:30;2.20;;;2.00;;
16029;SDS011;34770;49.272;11.070;2022-09-01T14:08:56;2.25;;;1.98;;
16029;SDS011;34770;49.272;11.070;2022-09-01T14:11:22;2.28;;;2.08;;
16029;SDS011;34770;49.272;11.070;2022-09-01T14:13:48;2.92;;;2.30;;
16029;SDS011;34770;49.272;11.070;2022-09-01T14:16:14;1.92;;;1.83;;
16029;SDS011;34770;49.272;11.070;2022-09-01T14:18:40;2.17;;;2.03;;
16029;SDS011;34770;49.272;11.070;2022-09-01T14:21:09;2.20;;;2.05;;
16029;SDS011;34770;49.272;11.070;2022-09-01T14:23:36;2.67;;;2.28;;
16029;SDS011;34770;49.272;11.070;2022-09-01T14:26:02;2.05;;;1.85;;
16029;SDS011;34770;49.272;11.070;2022-09-01T14:28:32;1.85;;;1.75;;
16029;SDS011;34770;49.272;11.070;2022-09-01T14:30:57;3.17;;;2.08;;
16029;SDS011;34770;49.272;11.070;2022-09-01T14:33:23;2.88;;;2.28;;
16029;SDS011;34770;49.272;11.070;2022-09-01T14:35:51;3.08;;;2.20;;
16029;SDS011;34770;49.272;11.070;2022-09-01T14:38:16;2.10;;;2.00;;
16029;SDS011;34770;49.272;11.070;2022-09-01T14:40:42;2.38;;;2.17;;
16029;SDS011;34770;49.272;11.070;2022-09-01T14:43:10;2.17;;;2.03;;
16029;SDS011;34770;49.272;11.070;2022-09-01T14:45:39;2.55;;;2.13;;
16029;SDS011;34770;49.272;11.070;2022-09-01T14:48:08;3.53;;;1.85;;
16029;SDS011;34770;49.272;11.070;2022-09-01T14:50:37;1.92;;;1.75;;
16029;SDS011;34770;49.272;11.070;2022-09-01T14:53:05;2.83;;;1.85;;
16029;SDS011;34770;49.272;11.070;2022-09-01T14:55:30;1.80;;;1.70;;
16029;SDS011;34770;49.272;11.070;2022-09-01T14:57:56;2.75;;;1.98;;
16029;SDS011;34770;49.272;11.070;2022-09-01T15:00:24;2.08;;;1.80;;
16029;SDS011;34770;49.272;11.070;2022-09-01T15:02:50;2.45;;;2.05;;
16029;SDS011;34770;49.272;11.070;2022-09-01T15:05:16;2.75;;;2.40;;
16029;SDS011;34770;49.272;11.070;2022-09-01T15:07:42;3.80;;;2.28;;
16029;SDS011;34770;49.272;11.070;2022-09-01T15:10:09;2.15;;;1.95;;
16029;SDS011;34770;49.272;11.070;2022-09-01T15:12:36;2.90;;;1.85;;
16029;SDS011;34770;49.272;11.070;2022-09-01T15:15:04;2.33;;;1.90;;
16029;SDS011;34770;49.272;11.070;2022-09-01T15:17:30;2.78;;;1.80;;
16029;SDS011;34770;49.272;11.070;2022-09-01T15:19:56;1.92;;;1.80;;
16029;SDS011;34770;49.272;11.070;2022-09-01T15:22:41;3.80;;;2.05;;
16029;SDS011;34770;49.272;11.070;2022-09-01T15:25:07;3.15;;;2.10;;
16029;SDS011;34770;49.272;11.070;2022-09-01T15:27:32;2.95;;;2.67;;
16029;SDS011;34770;49.272;11.070;2022-09-01T15:29:58;4.47;;;2.38;;
16029;SDS011;34770;49.272;11.070;2022-09-01T15:32:23;1.92;;;1.83;;
16029;SDS011;34770;49.272;11.070;2022-09-01T15:34:48;5.10;;;1.92;;
16029;SDS011;34770;49.272;11.070;2022-09-01T15:37:14;4.47;;;2.45;;
16029;SDS011;34770;49.272;11.070;2022-09-01T15:39:39;2.35;;;2.05;;
16029;SDS011;34770;49.272;11.070;2022-09-01T15:42:05;5.85;;;2.20;;
16029;SDS011;34770;49.272;11.070;2022-09-01T15:44:32;3.05;;;2.00;;
16029;SDS011;34770;49.272;11.070;2022-09-01T15:46:57;3.10;;;2.15;;
16029;SDS011;34770;49.272;11.070;2022-09-01T15:49:23;3.35;;;2.03;;
16029;SDS011;34770;49.272;11.070;2022-09-01T15:51:49;3.15;;;2.22;;
16029;SDS011;34770;49.272;11.070;2022-09-01T15:54:15;2.53;;;1.88;;
16029;SDS011;34770;49.272;11.070;2022-09-01T15:56:42;2.92;;;1.98;;
16029;SDS011;34770;49.272;11.070;2022-09-01T15:59:09;1.90;;;1.80;;
16029;SDS011;34770;49.272;11.070;2022-09-01T16:01:37;2.63;;;1.90;;
16029;SDS011;34770;49.272;11.070;2022-09-01T16:04:05;3.42;;;1.77;;